sensor_id;sensor_type;location;lat;lon;timestamp;P1;durP1;ratioP1;P2;durP2;ratioP2
33347;SDS011;19707;51.158;17.124;2023-01-28T00:01:16;67.40;;;35.10;;
33347;SDS011;19707;51.158;17.124;2023-01-28T00:04:20;59.60;;;32.40;;
33347;SDS011;19707;51.158;17.124;2023-01-28T00:07:22;62.40;;;31.90;;
33347;SDS011;19707;51.158;17.124;2023-01-28T00:10:27;53.40;;;31.20;;
33347;SDS011;19707;51.158;17.124;2023-01-28T00:13:30;64.40;;;32.30;;
33347;SDS011;19707;51.158;17.124;2023-01-28T00:16:33;63.40;;;31.70;;
33347;SDS011;19707;51.158;17.124;2023-01-28T00:19:35;60.00;;;31.00;;
33347;SDS011;19707;51.158;17.124;2023-01-28T00:22:38;59.60;;;31.10;;
33347;SDS011;19707;51.158;17.124;2023-01-28T00:25:41;58.90;;;30.10;;
33347;SDS011;19707;51.158;17.124;2023-01-28T00:28:43;60.70;;;33.00;;
33347;SDS011;19707;51.158;17.124;2023-01-28T00:31:46;55.40;;;31.00;;
33347;SDS011;19707;51.158;17.124;2023-01-28T00:34:48;59.80;;;31.30;;
33347;SDS011;19707;51.158;17.124;2023-01-28T00:37:50;55.80;;;30.00;;
33347;SDS011;19707;51.158;17.124;2023-01-28T00:40:53;52.50;;;29.20;;
33347;SDS011;19707;51.158;17.124;2023-01-28T00:43:56;57.40;;;32.10;;
33347;SDS011;19707;51.158;17.124;2023-01-28T00:46:59;67.40;;;32.10;;
33347;SDS011;19707;51.158;17.124;2023-01-28T00:50:02;54.50;;;28.90;;
33347;SDS011;19707;51.158;17.124;2023-01-28T00:53:04;57.70;;;28.50;;
33347;SDS011;19707;51.158;17.124;2023-01-28T00:56:07;56.80;;;30.00;;
33347;SDS011;19707;51.158;17.124;2023-01-28T01:02:15;58.90;;;30.20;;
33347;SDS011;19707;51.158;17.124;2023-01-28T01:05:18;63.90;;;29.30;;
33347;SDS011;19707;51.158;17.124;2023-01-28T01:08:20;60.10;;;29.00;;
33347;SDS011;19707;51.158;17.124;2023-01-28T01:14:38;53.60;;;27.40;;
33347;SDS011;19707;51.158;17.124;2023-01-28T01:17:42;52.00;;;26.20;;
33347;SDS011;19707;51.158;17.124;2023-01-28T01:20:45;49.40;;;26.70;;
33347;SDS011;19707;51.158;17.124;2023-01-28T01:23:48;54.30;;;28.60;;
33347;SDS011;19707;51.158;17.124;2023-01-28T01:26:51;52.40;;;26.80;;
33347;SDS011;19707;51.158;17.124;2023-01-28T01:29:53;48.10;;;26.60;;
33347;SDS011;19707;51.158;17.124;2023-01-28T01:32:56;50.50;;;27.80;;
33347;SDS011;19707;51.158;17.124;2023-01-28T01:35:58;54.10;;;28.30;;
33347;SDS011;19707;51.158;17.124;2023-01-28T01:39:01;51.00;;;27.20;;
33347;SDS011;19707;51.158;17.124;2023-01-28T01:42:03;49.40;;;26.80;;
33347;SDS011;19707;51.158;17.124;2023-01-28T01:45:07;46.90;;;27.70;;
33347;SDS011;19707;51.158;17.124;2023-01-28T01:48:17;40.60;;;24.50;;
33347;SDS011;19707;51.158;17.124;2023-01-28T01:51:24;46.90;;;26.70;;
33347;SDS011;19707;51.158;17.124;2023-01-28T01:54:29;44.40;;;24.60;;
33347;SDS011;19707;51.158;17.124;2023-01-28T01:57:33;36.70;;;21.90;;
33347;SDS011;19707;51.158;17.124;2023-01-28T02:00:37;44.60;;;23.70;;
33347;SDS011;19707;51.158;17.124;2023-01-28T02:07:04;38.70;;;21.90;;
33347;SDS011;19707;51.158;17.124;2023-01-28T02:10:09;35.20;;;22.60;;
33347;SDS011;19707;51.158;17.124;2023-01-28T02:13:13;36.30;;;21.70;;
33347;SDS011;19707;51.158;17.124;2023-01-28T02:16:16;36.00;;;21.00;;
33347;SDS011;19707;51.158;17.124;2023-01-28T02:19:18;31.40;;;20.10;;
33347;SDS011;19707;51.158;17.124;2023-01-28T02:32:07;34.70;;;20.10;;
33347;SDS011;19707;51.158;17.124;2023-01-28T02:35:13;33.30;;;20.70;;
33347;SDS011;19707;51.158;17.124;2023-01-28T02:38:20;32.10;;;19.50;;
33347;SDS011;19707;51.158;17.124;2023-01-28T02:41:32;32.10;;;20.80;;
33347;SDS011;19707;51.158;17.124;2023-01-28T02:44:38;36.50;;;21.40;;
33347;SDS011;19707;51.158;17.124;2023-01-28T02:47:41;35.30;;;20.80;;
33347;SDS011;19707;51.158;17.124;2023-01-28T02:51:04;38.00;;;22.60;;
33347;SDS011;19707;51.158;17.124;2023-01-28T02:54:13;33.10;;;20.40;;
33347;SDS011;19707;51.158;17.124;2023-01-28T03:03:56;34.70;;;21.10;;
33347;SDS011;19707;51.158;17.124;2023-01-28T03:07:04;38.90;;;21.20;;
33347;SDS011;19707;51.158;17.124;2023-01-28T03:10:08;36.50;;;22.30;;
33347;SDS011;19707;51.158;17.124;2023-01-28T03:13:15;34.80;;;21.10;;
33347;SDS011;19707;51.158;17.124;2023-01-28T03:16:36;38.50;;;23.30;;
33347;SDS011;19707;51.158;17.124;2023-01-28T03:19:58;38.30;;;21.90;;
33347;SDS011;19707;51.158;17.124;2023-01-28T03:23:21;35.60;;;21.50;;
33347;SDS011;19707;51.158;17.124;2023-01-28T03:33:58;43.00;;;24.30;;
33347;SDS011;19707;51.158;17.124;2023-01-28T03:37:20;36.60;;;22.40;;
33347;SDS011;19707;51.158;17.124;2023-01-28T03:40:24;40.00;;;24.00;;
33347;SDS011;19707;51.158;17.124;2023-01-28T03:43:30;33.30;;;19.80;;
33347;SDS011;19707;51.158;17.124;2023-01-28T03:46:32;44.80;;;23.70;;
33347;SDS011;19707;51.158;17.124;2023-01-28T03:49:37;39.70;;;22.60;;
33347;SDS011;19707;51.158;17.124;2023-01-28T03:52:43;34.70;;;21.70;;
33347;SDS011;19707;51.158;17.124;2023-01-28T03:55:47;39.70;;;22.40;;
33347;SDS011;19707;51.158;17.124;2023-01-28T03:58:51;34.40;;;22.40;;
33347;SDS011;19707;51.158;17.124;2023-01-28T04:01:57;35.50;;;21.60;;
33347;SDS011;19707;51.158;17.124;2023-01-28T04:05:00;37.90;;;22.30;;
33347;SDS011;19707;51.158;17.124;2023-01-28T04:08:07;33.30;;;22.00;;
33347;SDS011;19707;51.158;17.124;2023-01-28T04:11:10;37.60;;;20.80;;
33347;SDS011;19707;51.158;17.124;2023-01-28T04:14:20;39.20;;;21.20;;
33347;SDS011;19707;51.158;17.124;2023-01-28T04:17:22;34.50;;;21.70;;
33347;SDS011;19707;51.158;17.124;2023-01-28T04:20:25;34.40;;;20.70;;
33347;SDS011;19707;51.158;17.124;2023-01-28T04:23:27;34.30;;;22.70;;
33347;SDS011;19707;51.158;17.124;2023-01-28T04:29:35;38.50;;;22.40;;
33347;SDS011;19707;51.158;17.124;2023-01-28T04:32:37;41.50;;;23.30;;
33347;SDS011;19707;51.158;17.124;2023-01-28T04:35:39;42.70;;;25.50;;
33347;SDS011;19707;51.158;17.124;2023-01-28T04:38:42;43.70;;;25.00;;
33347;SDS011;19707;51.158;17.124;2023-01-28T04:41:44;40.00;;;25.40;;
33347;SDS011;19707;51.158;17.124;2023-01-28T04:44:46;44.50;;;25.30;;
33347;SDS011;19707;51.158;17.124;2023-01-28T04:47:49;46.90;;;24.80;;
33347;SDS011;19707;51.158;17.124;2023-01-28T04:50:51;40.00;;;24.20;;
33347;SDS011;19707;51.158;17.124;2023-01-28T04:53:53;39.40;;;22.90;;
33347;SDS011;19707;51.158;17.124;2023-01-28T04:56:55;43.20;;;23.90;;
33347;SDS011;19707;51.158;17.124;2023-01-28T04:59:57;41.90;;;24.30;;
33347;SDS011;19707;51.158;17.124;2023-01-28T05:02:59;37.50;;;23.20;;
33347;SDS011;19707;51.158;17.124;2023-01-28T05:06:02;39.30;;;22.60;;
33347;SDS011;19707;51.158;17.124;2023-01-28T05:09:05;41.30;;;25.10;;
33347;SDS011;19707;51.158;17.124;2023-01-28T05:12:08;44.20;;;28.20;;
33347;SDS011;19707;51.158;17.124;2023-01-28T05:15:10;44.40;;;27.50;;
33347;SDS011;19707;51.158;17.124;2023-01-28T05:18:12;47.90;;;28.60;;
33347;SDS011;19707;51.158;17.124;2023-01-28T05:21:14;47.20;;;30.20;;
33347;SDS011;19707;51.158;17.124;2023-01-28T05:24:17;46.30;;;30.40;;
33347;SDS011;19707;51.158;17.124;2023-01-28T05:27:19;50.20;;;30.40;;
33347;SDS011;19707;51.158;17.124;2023-01-28T05:30:22;51.80;;;32.80;;
33347;SDS011;19707;51.158;17.124;2023-01-28T05:33:24;51.90;;;31.70;;
33347;SDS011;19707;51.158;17.124;2023-01-28T05:36:26;52.70;;;31.00;;
33347;SDS011;19707;51.158;17.124;2023-01-28T05:39:28;49.20;;;30.80;;
33347;SDS011;19707;51.158;17.124;2023-01-28T05:42:32;48.50;;;32.00;;
33347;SDS011;19707;51.158;17.124;2023-01-28T05:45:34;51.00;;;30.70;;
33347;SDS011;19707;51.158;17.124;2023-01-28T05:48:37;59.80;;;32.30;;
33347;SDS011;19707;51.158;17.124;2023-01-28T05:51:39;51.70;;;31.30;;
33347;SDS011;19707;51.158;17.124;2023-01-28T05:54:41;53.50;;;32.60;;
33347;SDS011;19707;51.158;17.124;2023-01-28T05:57:44;50.60;;;30.60;;
33347;SDS011;19707;51.158;17.124;2023-01-28T06:00:46;54.70;;;29.60;;
33347;SDS011;19707;51.158;17.124;2023-01-28T06:03:49;45.00;;;29.20;;
33347;SDS011;19707;51.158;17.124;2023-01-28T06:06:51;48.80;;;31.00;;
33347;SDS011;19707;51.158;17.124;2023-01-28T06:09:53;48.50;;;29.50;;
33347;SDS011;19707;51.158;17.124;2023-01-28T06:12:56;44.90;;;28.70;;
33347;SDS011;19707;51.158;17.124;2023-01-28T06:15:58;48.60;;;30.00;;
33347;SDS011;19707;51.158;17.124;2023-01-28T06:19:01;46.50;;;28.20;;
33347;SDS011;19707;51.158;17.124;2023-01-28T06:22:03;48.40;;;29.90;;
33347;SDS011;19707;51.158;17.124;2023-01-28T06:25:06;49.50;;;30.50;;
33347;SDS011;19707;51.158;17.124;2023-01-28T06:28:09;48.80;;;30.60;;
33347;SDS011;19707;51.158;17.124;2023-01-28T06:31:11;45.90;;;30.10;;
33347;SDS011;19707;51.158;17.124;2023-01-28T06:34:13;40.00;;;25.90;;
33347;SDS011;19707;51.158;17.124;2023-01-28T06:37:16;41.00;;;28.00;;
33347;SDS011;19707;51.158;17.124;2023-01-28T06:40:19;42.30;;;27.00;;
33347;SDS011;19707;51.158;17.124;2023-01-28T06:43:23;41.60;;;27.60;;
33347;SDS011;19707;51.158;17.124;2023-01-28T06:49:31;42.40;;;28.40;;
33347;SDS011;19707;51.158;17.124;2023-01-28T06:52:33;46.40;;;29.60;;
33347;SDS011;19707;51.158;17.124;2023-01-28T06:55:35;50.50;;;30.50;;
33347;SDS011;19707;51.158;17.124;2023-01-28T06:58:38;43.20;;;27.20;;
33347;SDS011;19707;51.158;17.124;2023-01-28T07:01:40;42.80;;;27.30;;
33347;SDS011;19707;51.158;17.124;2023-01-28T07:04:42;35.90;;;24.20;;
33347;SDS011;19707;51.158;17.124;2023-01-28T07:07:44;42.00;;;25.60;;
33347;SDS011;19707;51.158;17.124;2023-01-28T07:10:47;41.50;;;27.50;;
33347;SDS011;19707;51.158;17.124;2023-01-28T07:13:50;40.30;;;26.60;;
33347;SDS011;19707;51.158;17.124;2023-01-28T07:16:52;39.70;;;26.60;;
33347;SDS011;19707;51.158;17.124;2023-01-28T07:19:54;39.90;;;25.30;;
33347;SDS011;19707;51.158;17.124;2023-01-28T07:22:57;36.70;;;25.00;;
33347;SDS011;19707;51.158;17.124;2023-01-28T07:26:00;36.80;;;24.60;;
33347;SDS011;19707;51.158;17.124;2023-01-28T07:29:07;38.30;;;25.50;;
33347;SDS011;19707;51.158;17.124;2023-01-28T07:32:10;40.10;;;27.00;;
33347;SDS011;19707;51.158;17.124;2023-01-28T07:35:12;40.80;;;27.50;;
33347;SDS011;19707;51.158;17.124;2023-01-28T07:38:15;41.80;;;28.00;;
33347;SDS011;19707;51.158;17.124;2023-01-28T07:41:17;51.30;;;29.30;;
33347;SDS011;19707;51.158;17.124;2023-01-28T07:44:20;42.80;;;28.50;;
33347;SDS011;19707;51.158;17.124;2023-01-28T07:47:22;46.70;;;29.80;;
33347;SDS011;19707;51.158;17.124;2023-01-28T07:50:25;55.30;;;32.80;;
33347;SDS011;19707;51.158;17.124;2023-01-28T07:53:29;47.70;;;29.90;;
33347;SDS011;19707;51.158;17.124;2023-01-28T07:56:31;44.10;;;29.40;;
33347;SDS011;19707;51.158;17.124;2023-01-28T07:59:34;40.10;;;27.40;;
33347;SDS011;19707;51.158;17.124;2023-01-28T08:02:37;42.70;;;27.90;;
33347;SDS011;19707;51.158;17.124;2023-01-28T08:05:46;44.40;;;29.70;;
33347;SDS011;19707;51.158;17.124;2023-01-28T08:08:50;40.00;;;27.40;;
33347;SDS011;19707;51.158;17.124;2023-01-28T08:11:52;46.20;;;30.00;;
33347;SDS011;19707;51.158;17.124;2023-01-28T08:14:55;41.70;;;27.00;;
33347;SDS011;19707;51.158;17.124;2023-01-28T08:17:58;44.60;;;28.50;;
33347;SDS011;19707;51.158;17.124;2023-01-28T08:21:01;50.10;;;29.10;;
33347;SDS011;19707;51.158;17.124;2023-01-28T08:24:05;43.80;;;28.00;;
33347;SDS011;19707;51.158;17.124;2023-01-28T08:27:08;52.10;;;30.30;;
33347;SDS011;19707;51.158;17.124;2023-01-28T08:30:11;49.80;;;30.60;;
33347;SDS011;19707;51.158;17.124;2023-01-28T08:33:14;42.90;;;26.80;;
33347;SDS011;19707;51.158;17.124;2023-01-28T08:36:17;44.20;;;28.40;;
33347;SDS011;19707;51.158;17.124;2023-01-28T08:39:19;45.20;;;28.10;;
33347;SDS011;19707;51.158;17.124;2023-01-28T08:42:22;41.70;;;28.00;;
33347;SDS011;19707;51.158;17.124;2023-01-28T08:45:25;45.30;;;29.80;;
33347;SDS011;19707;51.158;17.124;2023-01-28T08:48:28;45.80;;;29.80;;
33347;SDS011;19707;51.158;17.124;2023-01-28T08:51:30;53.40;;;31.60;;
33347;SDS011;19707;51.158;17.124;2023-01-28T08:54:33;50.90;;;32.10;;
33347;SDS011;19707;51.158;17.124;2023-01-28T08:57:38;46.40;;;31.40;;
33347;SDS011;19707;51.158;17.124;2023-01-28T09:00:41;50.90;;;31.50;;
33347;SDS011;19707;51.158;17.124;2023-01-28T09:03:44;46.00;;;28.10;;
33347;SDS011;19707;51.158;17.124;2023-01-28T09:06:46;38.70;;;25.40;;
33347;SDS011;19707;51.158;17.124;2023-01-28T09:09:49;34.30;;;23.90;;
33347;SDS011;19707;51.158;17.124;2023-01-28T09:12:51;38.30;;;25.10;;
33347;SDS011;19707;51.158;17.124;2023-01-28T09:15:53;40.30;;;27.60;;
33347;SDS011;19707;51.158;17.124;2023-01-28T09:18:56;41.30;;;26.60;;
33347;SDS011;19707;51.158;17.124;2023-01-28T09:21:58;41.80;;;27.60;;
33347;SDS011;19707;51.158;17.124;2023-01-28T09:25:00;42.20;;;28.00;;
33347;SDS011;19707;51.158;17.124;2023-01-28T09:28:03;40.60;;;28.10;;
33347;SDS011;19707;51.158;17.124;2023-01-28T09:31:10;46.40;;;30.00;;
33347;SDS011;19707;51.158;17.124;2023-01-28T09:34:13;45.90;;;29.80;;
33347;SDS011;19707;51.158;17.124;2023-01-28T09:37:15;43.20;;;27.00;;
33347;SDS011;19707;51.158;17.124;2023-01-28T09:40:20;32.40;;;22.20;;
33347;SDS011;19707;51.158;17.124;2023-01-28T09:43:49;30.20;;;21.30;;
33347;SDS011;19707;51.158;17.124;2023-01-28T09:47:04;35.50;;;22.50;;
33347;SDS011;19707;51.158;17.124;2023-01-28T09:50:31;38.60;;;24.30;;
33347;SDS011;19707;51.158;17.124;2023-01-28T09:53:40;34.40;;;24.80;;
33347;SDS011;19707;51.158;17.124;2023-01-28T09:56:46;33.40;;;23.10;;
33347;SDS011;19707;51.158;17.124;2023-01-28T09:59:51;34.80;;;24.90;;
33347;SDS011;19707;51.158;17.124;2023-01-28T10:09:55;33.50;;;22.10;;
33347;SDS011;19707;51.158;17.124;2023-01-28T10:19:43;37.50;;;24.30;;
33347;SDS011;19707;51.158;17.124;2023-01-28T10:25:57;34.90;;;22.10;;
33347;SDS011;19707;51.158;17.124;2023-01-28T10:29:08;32.20;;;23.00;;
33347;SDS011;19707;51.158;17.124;2023-01-28T10:35:36;28.50;;;20.80;;
33347;SDS011;19707;51.158;17.124;2023-01-28T10:38:40;27.30;;;21.20;;
33347;SDS011;19707;51.158;17.124;2023-01-28T10:41:42;26.70;;;20.20;;
33347;SDS011;19707;51.158;17.124;2023-01-28T10:44:45;28.60;;;19.40;;
33347;SDS011;19707;51.158;17.124;2023-01-28T10:51:00;25.40;;;18.60;;
33347;SDS011;19707;51.158;17.124;2023-01-28T10:54:25;25.50;;;18.60;;
33347;SDS011;19707;51.158;17.124;2023-01-28T10:57:28;23.00;;;18.00;;
33347;SDS011;19707;51.158;17.124;2023-01-28T11:00:33;25.10;;;18.80;;
33347;SDS011;19707;51.158;17.124;2023-01-28T11:03:36;22.80;;;18.70;;
33347;SDS011;19707;51.158;17.124;2023-01-28T11:06:39;21.50;;;17.10;;
33347;SDS011;19707;51.158;17.124;2023-01-28T11:09:44;27.70;;;18.80;;
33347;SDS011;19707;51.158;17.124;2023-01-28T11:12:56;26.70;;;19.20;;
33347;SDS011;19707;51.158;17.124;2023-01-28T11:19:05;31.60;;;19.90;;
33347;SDS011;19707;51.158;17.124;2023-01-28T11:25:42;31.20;;;20.30;;
33347;SDS011;19707;51.158;17.124;2023-01-28T11:28:44;25.20;;;17.20;;
33347;SDS011;19707;51.158;17.124;2023-01-28T11:31:47;21.20;;;16.70;;
33347;SDS011;19707;51.158;17.124;2023-01-28T11:34:51;21.40;;;16.20;;
33347;SDS011;19707;51.158;17.124;2023-01-28T11:37:58;24.10;;;16.10;;
33347;SDS011;19707;51.158;17.124;2023-01-28T11:41:02;23.10;;;16.40;;
33347;SDS011;19707;51.158;17.124;2023-01-28T11:44:26;16.70;;;12.70;;
33347;SDS011;19707;51.158;17.124;2023-01-28T11:47:40;17.70;;;12.90;;
33347;SDS011;19707;51.158;17.124;2023-01-28T11:50:59;19.10;;;13.60;;
33347;SDS011;19707;51.158;17.124;2023-01-28T11:54:12;13.70;;;11.30;;
33347;SDS011;19707;51.158;17.124;2023-01-28T11:57:34;19.00;;;12.70;;
33347;SDS011;19707;51.158;17.124;2023-01-28T12:08:04;21.20;;;14.30;;
33347;SDS011;19707;51.158;17.124;2023-01-28T12:25:22;16.40;;;11.00;;
33347;SDS011;19707;51.158;17.124;2023-01-28T12:28:48;17.80;;;11.30;;
33347;SDS011;19707;51.158;17.124;2023-01-28T12:42:29;22.50;;;13.20;;
33347;SDS011;19707;51.158;17.124;2023-01-28T12:45:38;22.00;;;13.40;;
33347;SDS011;19707;51.158;17.124;2023-01-28T12:48:46;24.10;;;14.90;;
33347;SDS011;19707;51.158;17.124;2023-01-28T12:55:14;27.20;;;16.50;;
33347;SDS011;19707;51.158;17.124;2023-01-28T12:58:32;29.00;;;18.00;;
33347;SDS011;19707;51.158;17.124;2023-01-28T13:01:43;28.00;;;16.10;;
33347;SDS011;19707;51.158;17.124;2023-01-28T13:04:50;35.10;;;20.40;;
33347;SDS011;19707;51.158;17.124;2023-01-28T13:11:18;25.30;;;15.20;;
33347;SDS011;19707;51.158;17.124;2023-01-28T13:14:23;25.00;;;14.00;;
33347;SDS011;19707;51.158;17.124;2023-01-28T13:17:30;21.60;;;13.80;;
33347;SDS011;19707;51.158;17.124;2023-01-28T13:20:37;23.30;;;14.30;;
33347;SDS011;19707;51.158;17.124;2023-01-28T13:23:49;25.90;;;14.10;;
33347;SDS011;19707;51.158;17.124;2023-01-28T13:27:20;24.90;;;14.80;;
33347;SDS011;19707;51.158;17.124;2023-01-28T13:30:29;21.40;;;13.50;;
33347;SDS011;19707;51.158;17.124;2023-01-28T13:33:37;27.70;;;16.00;;
33347;SDS011;19707;51.158;17.124;2023-01-28T13:36:46;23.20;;;14.00;;
33347;SDS011;19707;51.158;17.124;2023-01-28T13:39:50;23.10;;;12.80;;
33347;SDS011;19707;51.158;17.124;2023-01-28T13:43:38;21.30;;;13.00;;
33347;SDS011;19707;51.158;17.124;2023-01-28T13:46:26;22.00;;;12.60;;
33347;SDS011;19707;51.158;17.124;2023-01-28T13:49:37;22.00;;;13.00;;
33347;SDS011;19707;51.158;17.124;2023-01-28T13:56:21;29.40;;;14.80;;
33347;SDS011;19707;51.158;17.124;2023-01-28T13:59:34;21.90;;;13.20;;
33347;SDS011;19707;51.158;17.124;2023-01-28T14:19:53;16.40;;;9.90;;
33347;SDS011;19707;51.158;17.124;2023-01-28T14:23:00;15.30;;;9.10;;
33347;SDS011;19707;51.158;17.124;2023-01-28T14:32:47;12.70;;;7.50;;
33347;SDS011;19707;51.158;17.124;2023-01-28T14:35:50;12.10;;;7.70;;
33347;SDS011;19707;51.158;17.124;2023-01-28T14:38:53;12.90;;;7.70;;
33347;SDS011;19707;51.158;17.124;2023-01-28T14:41:58;15.40;;;8.00;;
33347;SDS011;19707;51.158;17.124;2023-01-28T14:52:37;11.70;;;7.20;;
33347;SDS011;19707;51.158;17.124;2023-01-28T14:58:52;10.20;;;6.20;;
33347;SDS011;19707;51.158;17.124;2023-01-28T15:01:59;15.60;;;7.80;;
33347;SDS011;19707;51.158;17.124;2023-01-28T15:05:08;14.30;;;8.00;;
33347;SDS011;19707;51.158;17.124;2023-01-28T15:08:22;13.00;;;8.20;;
33347;SDS011;19707;51.158;17.124;2023-01-28T15:11:25;10.90;;;7.50;;
33347;SDS011;19707;51.158;17.124;2023-01-28T15:14:28;16.20;;;9.60;;
33347;SDS011;19707;51.158;17.124;2023-01-28T15:17:32;15.80;;;8.60;;
33347;SDS011;19707;51.158;17.124;2023-01-28T15:20:52;14.20;;;9.40;;
33347;SDS011;19707;51.158;17.124;2023-01-28T15:24:14;18.00;;;10.00;;
33347;SDS011;19707;51.158;17.124;2023-01-28T15:27:22;16.40;;;9.80;;
33347;SDS011;19707;51.158;17.124;2023-01-28T15:30:43;18.20;;;9.70;;
33347;SDS011;19707;51.158;17.124;2023-01-28T15:34:15;12.90;;;8.80;;
33347;SDS011;19707;51.158;17.124;2023-01-28T15:38:07;15.40;;;10.20;;
33347;SDS011;19707;51.158;17.124;2023-01-28T15:41:38;13.90;;;8.00;;
33347;SDS011;19707;51.158;17.124;2023-01-28T15:45:22;18.20;;;9.70;;
33347;SDS011;19707;51.158;17.124;2023-01-28T15:49:19;13.60;;;8.60;;
33347;SDS011;19707;51.158;17.124;2023-01-28T15:52:40;14.40;;;8.90;;
33347;SDS011;19707;51.158;17.124;2023-01-28T15:56:22;15.20;;;9.30;;
33347;SDS011;19707;51.158;17.124;2023-01-28T16:00:22;14.10;;;8.80;;
33347;SDS011;19707;51.158;17.124;2023-01-28T16:03:33;13.80;;;9.40;;
33347;SDS011;19707;51.158;17.124;2023-01-28T16:06:48;22.90;;;12.90;;
33347;SDS011;19707;51.158;17.124;2023-01-28T16:13:50;29.40;;;15.20;;
33347;SDS011;19707;51.158;17.124;2023-01-28T16:17:21;21.20;;;13.20;;
33347;SDS011;19707;51.158;17.124;2023-01-28T16:21:36;18.30;;;11.70;;
33347;SDS011;19707;51.158;17.124;2023-01-28T16:25:43;23.70;;;13.40;;
33347;SDS011;19707;51.158;17.124;2023-01-28T16:29:35;31.90;;;19.00;;
33347;SDS011;19707;51.158;17.124;2023-01-28T16:33:18;39.10;;;17.60;;
33347;SDS011;19707;51.158;17.124;2023-01-28T16:36:50;30.40;;;16.60;;
33347;SDS011;19707;51.158;17.124;2023-01-28T16:40:21;31.00;;;15.20;;
33347;SDS011;19707;51.158;17.124;2023-01-28T16:43:55;36.70;;;17.10;;
33347;SDS011;19707;51.158;17.124;2023-01-28T16:47:56;30.90;;;15.50;;
33347;SDS011;19707;51.158;17.124;2023-01-28T16:51:56;36.80;;;14.80;;
33347;SDS011;19707;51.158;17.124;2023-01-28T16:55:43;31.20;;;13.10;;
33347;SDS011;19707;51.158;17.124;2023-01-28T17:03:27;30.10;;;13.00;;
33347;SDS011;19707;51.158;17.124;2023-01-28T17:11:35;34.20;;;16.40;;
33347;SDS011;19707;51.158;17.124;2023-01-28T17:15:28;26.80;;;12.00;;
33347;SDS011;19707;51.158;17.124;2023-01-28T17:18:44;18.30;;;10.60;;
33347;SDS011;19707;51.158;17.124;2023-01-28T17:22:35;21.20;;;13.00;;
33347;SDS011;19707;51.158;17.124;2023-01-28T17:26:15;17.70;;;11.90;;
33347;SDS011;19707;51.158;17.124;2023-01-28T17:29:39;26.90;;;17.40;;
33347;SDS011;19707;51.158;17.124;2023-01-28T17:33:04;20.30;;;13.40;;
33347;SDS011;19707;51.158;17.124;2023-01-28T17:36:15;18.40;;;12.40;;
33347;SDS011;19707;51.158;17.124;2023-01-28T17:39:48;19.30;;;12.60;;
33347;SDS011;19707;51.158;17.124;2023-01-28T17:43:16;25.90;;;15.40;;
33347;SDS011;19707;51.158;17.124;2023-01-28T17:46:30;27.20;;;14.10;;
33347;SDS011;19707;51.158;17.124;2023-01-28T17:49:45;23.60;;;14.00;;
33347;SDS011;19707;51.158;17.124;2023-01-28T17:53:21;24.00;;;15.30;;
33347;SDS011;19707;51.158;17.124;2023-01-28T17:56:32;18.80;;;13.20;;
33347;SDS011;19707;51.158;17.124;2023-01-28T18:07:36;18.30;;;11.60;;
33347;SDS011;19707;51.158;17.124;2023-01-28T18:10:56;16.70;;;10.50;;
33347;SDS011;19707;51.158;17.124;2023-01-28T18:17:44;19.70;;;11.50;;
33347;SDS011;19707;51.158;17.124;2023-01-28T18:21:18;19.00;;;12.70;;
33347;SDS011;19707;51.158;17.124;2023-01-28T18:25:27;19.70;;;13.20;;
33347;SDS011;19707;51.158;17.124;2023-01-28T18:29:07;17.80;;;12.30;;
33347;SDS011;19707;51.158;17.124;2023-01-28T18:32:53;22.30;;;12.50;;
33347;SDS011;19707;51.158;17.124;2023-01-28T18:36:06;17.70;;;13.70;;
33347;SDS011;19707;51.158;17.124;2023-01-28T18:39:12;27.70;;;14.20;;
33347;SDS011;19707;51.158;17.124;2023-01-28T18:42:24;22.90;;;14.60;;
33347;SDS011;19707;51.158;17.124;2023-01-28T18:45:27;25.50;;;16.10;;
33347;SDS011;19707;51.158;17.124;2023-01-28T18:48:29;23.70;;;16.60;;
33347;SDS011;19707;51.158;17.124;2023-01-28T18:51:33;43.10;;;25.60;;
33347;SDS011;19707;51.158;17.124;2023-01-28T18:54:36;36.80;;;23.00;;
33347;SDS011;19707;51.158;17.124;2023-01-28T18:57:38;40.80;;;21.80;;
33347;SDS011;19707;51.158;17.124;2023-01-28T19:00:41;28.70;;;16.00;;
33347;SDS011;19707;51.158;17.124;2023-01-28T19:03:43;27.90;;;15.10;;
33347;SDS011;19707;51.158;17.124;2023-01-28T19:06:45;22.10;;;11.00;;
33347;SDS011;19707;51.158;17.124;2023-01-28T19:09:48;16.80;;;9.70;;
33347;SDS011;19707;51.158;17.124;2023-01-28T19:12:50;19.40;;;9.40;;
33347;SDS011;19707;51.158;17.124;2023-01-28T19:15:52;18.30;;;9.70;;
33347;SDS011;19707;51.158;17.124;2023-01-28T19:18:56;16.00;;;8.10;;
33347;SDS011;19707;51.158;17.124;2023-01-28T19:21:59;9.30;;;5.90;;
33347;SDS011;19707;51.158;17.124;2023-01-28T19:25:11;12.00;;;6.60;;
33347;SDS011;19707;51.158;17.124;2023-01-28T19:28:13;17.50;;;8.60;;
33347;SDS011;19707;51.158;17.124;2023-01-28T19:31:16;14.50;;;6.60;;
33347;SDS011;19707;51.158;17.124;2023-01-28T19:34:19;11.80;;;6.40;;
33347;SDS011;19707;51.158;17.124;2023-01-28T19:37:22;14.40;;;7.70;;
33347;SDS011;19707;51.158;17.124;2023-01-28T19:40:24;14.60;;;8.20;;
33347;SDS011;19707;51.158;17.124;2023-01-28T19:43:27;24.20;;;12.30;;
33347;SDS011;19707;51.158;17.124;2023-01-28T19:46:29;14.90;;;8.10;;
33347;SDS011;19707;51.158;17.124;2023-01-28T19:49:32;13.20;;;7.60;;
33347;SDS011;19707;51.158;17.124;2023-01-28T19:52:34;13.40;;;7.50;;
33347;SDS011;19707;51.158;17.124;2023-01-28T19:55:37;14.90;;;7.40;;
33347;SDS011;19707;51.158;17.124;2023-01-28T19:58:40;22.70;;;9.50;;
33347;SDS011;19707;51.158;17.124;2023-01-28T20:01:44;24.40;;;10.80;;
33347;SDS011;19707;51.158;17.124;2023-01-28T20:04:46;19.30;;;10.00;;
33347;SDS011;19707;51.158;17.124;2023-01-28T20:07:49;15.60;;;8.70;;
33347;SDS011;19707;51.158;17.124;2023-01-28T20:10:51;17.80;;;9.20;;
33347;SDS011;19707;51.158;17.124;2023-01-28T20:13:54;22.10;;;8.50;;
33347;SDS011;19707;51.158;17.124;2023-01-28T20:16:57;18.80;;;10.90;;
33347;SDS011;19707;51.158;17.124;2023-01-28T20:19:59;12.70;;;8.80;;
33347;SDS011;19707;51.158;17.124;2023-01-28T20:23:04;9.70;;;6.30;;
33347;SDS011;19707;51.158;17.124;2023-01-28T20:26:07;19.00;;;11.10;;
33347;SDS011;19707;51.158;17.124;2023-01-28T20:29:11;22.70;;;11.10;;
33347;SDS011;19707;51.158;17.124;2023-01-28T20:32:15;14.90;;;9.60;;
33347;SDS011;19707;51.158;17.124;2023-01-28T20:35:17;19.20;;;9.40;;
33347;SDS011;19707;51.158;17.124;2023-01-28T20:38:20;19.50;;;10.70;;
33347;SDS011;19707;51.158;17.124;2023-01-28T20:41:22;19.60;;;11.00;;
33347;SDS011;19707;51.158;17.124;2023-01-28T20:44:25;21.90;;;10.70;;
33347;SDS011;19707;51.158;17.124;2023-01-28T20:47:39;27.30;;;11.90;;
33347;SDS011;19707;51.158;17.124;2023-01-28T20:51:25;38.40;;;13.20;;
33347;SDS011;19707;51.158;17.124;2023-01-28T20:55:10;27.40;;;12.80;;
33347;SDS011;19707;51.158;17.124;2023-01-28T21:05:54;24.40;;;11.70;;
33347;SDS011;19707;51.158;17.124;2023-01-28T21:14:02;21.80;;;12.50;;
33347;SDS011;19707;51.158;17.124;2023-01-28T21:18:45;17.60;;;11.50;;